Time;durP1;ratioP1;P1;durP2;ratioP2;P2;SDS_P1;SDS_P2;PMS_P1;PMS_P2;Temp;Humidity;BMP_temperature;BMP_pressure;BME280_temperature;BME280_humidity;BME280_pressure;Samples;Min_cycle;Max_cycle;Signal;HPM_P1;HPM_P2
2022/11/09 00:01:27;;;;;;;16.35;5.60;;;15.60;99.90;;;15.89;81.03;100251.72;5113279;28;20428;-72
2022/11/09 00:03:56;;;;;;;15.27;5.65;;;15.60;99.90;;;15.89;80.64;100253.53;5113366;28;20062;-71
2022/11/09 00:06:26;;;;;;;16.30;6.07;;;15.60;99.90;;;15.81;80.86;100253.81;5113227;28;20043;-71
2022/11/09 00:08:56;;;;;;;17.20;5.97;;;15.50;99.90;;;15.80;81.02;100249.41;5094838;28;20136;-71
2022/11/09 00:11:28;;;;;;;21.90;6.20;;;15.50;99.90;;;15.80;81.06;100251.19;5094848;28;20142;-71
2022/11/09 00:13:56;;;;;;;13.35;5.85;;;15.50;99.90;;;15.74;80.96;100238.94;5113090;28;20039;-71
2022/11/09 00:16:24;;;;;;;14.43;6.63;;;15.50;99.90;;;15.82;80.88;100254.66;5113306;28;20395;-71
2022/11/09 00:18:54;;;;;;;15.93;6.43;;;15.50;99.90;;;15.73;80.91;100239.88;5112953;28;20032;-71
2022/11/09 00:21:24;;;;;;;20.42;6.97;;;15.40;99.90;;;15.72;80.83;100224.78;5113541;28;20421;-71
2022/11/09 00:23:54;;;;;;;18.15;6.18;;;15.40;99.90;;;15.62;81.35;100238.53;5099253;28;20054;-72
2022/11/09 00:26:24;;;;;;;16.55;6.78;;;15.40;99.90;;;15.58;81.17;100256.38;5117211;28;20381;-72
2022/11/09 00:28:53;;;;;;;14.27;6.40;;;15.40;99.90;;;15.65;81.15;100252.59;5117043;28;20043;-72
2022/11/09 00:31:23;;;;;;;16.95;5.97;;;15.30;99.90;;;15.62;80.84;100246.53;5117024;28;20126;-71
2022/11/09 00:33:54;;;;;;;17.92;5.85;;;15.30;99.90;;;15.46;80.87;100214.19;5117113;28;20127;-71
2022/11/09 00:36:24;;;;;;;14.70;5.60;;;15.30;99.90;;;15.59;80.60;100251.94;5116834;28;20102;-71
2022/11/09 00:38:58;;;;;;;14.52;5.50;;;15.30;99.90;;;15.67;80.34;100250.75;5117166;28;20071;-71
2022/11/09 00:41:27;;;;;;;15.52;6.47;;;15.30;99.90;;;15.35;80.46;100205.63;5117041;28;20050;-71
2022/11/09 00:43:56;;;;;;;21.63;6.20;;;15.30;99.90;;;15.59;80.34;100249.28;5116912;28;20050;-71
2022/11/09 00:46:24;;;;;;;15.77;6.32;;;15.30;99.90;;;15.64;80.55;100258.00;5116764;28;20035;-72
2022/11/09 00:48:55;;;;;;;16.17;6.10;;;15.30;99.90;;;15.56;80.24;100247.59;5098349;28;20043;-71
2022/11/09 00:51:24;;;;;;;13.77;5.95;;;15.30;99.90;;;15.54;80.43;100245.91;5116723;28;20481;-72
2022/11/09 00:53:54;;;;;;;16.70;5.82;;;15.30;99.90;;;15.46;80.42;100251.50;5116579;28;20056;-72
2022/11/09 00:56:24;;;;;;;21.38;6.72;;;15.20;99.90;;;15.50;80.31;100247.81;5098417;28;20050;-71
2022/11/09 00:58:55;;;;;;;19.20;5.93;;;15.20;99.90;;;15.27;80.29;100227.22;5098267;28;20043;-71
2022/11/09 01:01:23;;;;;;;21.02;6.53;;;15.20;99.90;;;15.45;80.27;100247.09;5098155;28;20043;-71
2022/11/09 01:03:52;;;;;;;18.55;6.03;;;15.10;99.90;;;15.24;80.07;100229.13;5116693;28;20043;-72
2022/11/09 01:06:23;;;;;;;21.58;6.65;;;15.10;99.90;;;15.37;80.07;100239.31;5116742;28;20244;-72
2022/11/09 01:08:52;;;;;;;18.23;6.22;;;15.10;99.90;;;14.70;80.19;100135.09;5098320;28;20040;-72
2022/11/09 01:11:22;;;;;;;16.85;6.28;;;15.10;99.90;;;15.44;80.03;100255.13;5098109;28;20401;-72
2022/11/09 01:13:54;;;;;;;19.25;6.97;;;15.10;99.90;;;15.32;80.13;100245.72;5116089;28;20052;-71
2022/11/09 01:16:24;;;;;;;18.02;6.85;;;15.10;99.90;;;15.12;80.34;100222.41;5116304;28;20067;-71
2022/11/09 01:18:54;;;;;;;17.67;6.53;;;15.00;99.90;;;15.35;80.27;100243.81;5097959;28;20075;-71
2022/11/09 01:21:26;;;;;;;21.17;6.93;;;15.10;99.90;;;15.31;80.36;100276.81;5097927;28;20408;-71
2022/11/09 01:23:55;;;;;;;20.20;5.80;;;15.00;99.90;;;15.12;80.44;100222.41;5116153;28;20659;-70
2022/11/09 01:26:23;;;;;;;14.52;5.75;;;15.00;99.90;;;15.30;80.82;100250.25;5115948;28;20531;-70
2022/11/09 01:28:52;;;;;;;20.10;6.65;;;15.00;99.90;;;15.35;80.67;100250.94;5097947;28;20401;-71
2022/11/09 01:31:22;;;;;;;18.73;6.43;;;15.10;99.90;;;15.39;80.39;100249.91;5116085;28;20043;-72
2022/11/09 01:33:51;;;;;;;20.90;6.50;;;15.10;99.90;;;15.39;80.66;100256.13;5115621;28;20047;-72
2022/11/09 01:36:23;;;;;;;17.65;6.82;;;15.10;99.90;;;15.32;80.93;100262.59;5115918;28;20043;-71
2022/11/09 01:38:52;;;;;;;20.65;6.93;;;15.00;99.90;;;15.34;81.20;100267.88;5115763;28;20052;-71
2022/11/09 01:41:23;;;;;;;14.30;6.60;;;15.10;99.90;;;15.28;81.27;100255.63;5115934;28;20050;-71
2022/11/09 01:44:08;;;;;;;19.70;6.75;;;15.10;99.90;;;15.28;81.96;100263.63;5097633;28;20035;-71
2022/11/09 01:46:49;;;;;;;19.73;6.47;;;15.00;99.90;;;15.31;82.19;100252.84;5116140;28;20043;-72
2022/11/09 01:49:36;;;;;;;17.58;6.80;;;15.00;99.90;;;15.29;82.38;100254.69;5115471;28;20149;-70
2022/11/09 01:52:11;;;;;;;24.83;7.22;;;15.10;99.90;;;15.32;82.40;100264.38;5115780;28;20126;-71
2022/11/09 01:54:45;;;;;;;16.35;7.70;;;15.10;99.90;;;15.33;82.88;100272.31;5097334;28;20085;-70
2022/11/09 01:57:20;;;;;;;13.50;6.30;;;15.10;99.90;;;15.36;82.72;100272.25;5097268;28;20142;-71
2022/11/09 01:59:54;;;;;;;19.85;6.60;;;15.10;99.90;;;15.37;82.90;100265.97;5097120;28;20047;-71
2022/11/09 02:02:24;;;;;;;21.48;6.28;;;15.10;99.90;;;15.28;82.71;100258.28;5115476;28;20134;-71
2022/11/09 02:04:59;;;;;;;17.55;5.65;;;15.10;99.90;;;15.30;83.09;100277.75;5097399;28;20051;-71
2022/11/09 02:07:28;;;;;;;21.83;6.28;;;15.00;99.90;;;15.14;83.23;100244.53;5097108;28;20568;-71
2022/11/09 02:10:08;;;;;;;21.45;6.07;;;15.00;99.90;;;15.22;83.16;100242.50;5115194;28;20039;-71
2022/11/09 02:12:37;;;;;;;17.40;6.30;;;15.00;99.90;;;15.21;83.39;100262.06;5115598;28;20396;-72
2022/11/09 02:15:09;;;;;;;20.15;6.32;;;14.90;99.90;;;15.22;83.43;100241.63;5096805;28;20048;-72
2022/11/09 02:17:40;;;;;;;18.35;6.18;;;14.90;99.90;;;15.24;83.33;100258.44;5113960;28;20075;-72
2022/11/09 02:20:13;;;;;;;14.68;6.13;;;14.90;99.90;;;15.24;83.28;100258.44;5115086;28;20035;-71
2022/11/09 02:22:41;;;;;;;18.60;6.57;;;14.90;99.90;;;15.24;83.39;100256.66;5115033;28;20629;-72
2022/11/09 02:25:11;;;;;;;18.98;6.35;;;14.90;99.90;;;15.25;83.38;100258.38;5097015;28;20043;-71
2022/11/09 02:27:41;;;;;;;18.45;6.25;;;14.90;99.90;;;15.17;83.70;100270.22;5096883;28;20500;-70
2022/11/09 02:30:11;;;;;;;22.60;6.67;;;14.90;99.90;;;15.12;83.64;100270.38;5096801;28;20121;-71
2022/11/09 02:32:40;;;;;;;15.50;5.88;;;14.90;99.90;;;15.09;83.70;100270.47;5096626;28;20074;-71
2022/11/09 02:35:10;;;;;;;20.08;7.15;;;14.80;99.90;;;15.13;83.90;100269.47;5114485;28;20489;-72
2022/11/09 02:37:42;;;;;;;21.70;6.30;;;14.80;99.90;;;15.19;83.81;100274.56;5096075;28;20075;-72
2022/11/09 02:40:17;;;;;;;19.40;6.65;;;14.90;99.90;;;15.14;83.77;100280.97;5114628;28;20572;-71
2022/11/09 02:42:45;;;;;;;18.48;6.20;;;14.80;99.90;;;15.14;83.56;100296.94;5096510;28;20051;-70
2022/11/09 02:45:13;;;;;;;20.52;6.13;;;14.80;99.90;;;14.83;83.53;100254.44;5113302;28;20054;-66
2022/11/09 02:47:42;;;;;;;22.33;7.35;;;14.80;99.90;;;15.14;83.58;100275.63;5095171;28;20047;-66
2022/11/09 02:50:12;;;;;;;19.33;5.68;;;14.80;99.90;;;14.44;83.42;100158.09;5113407;28;20112;-66
2022/11/09 02:52:40;;;;;;;20.00;5.38;;;14.80;99.90;;;15.10;83.71;100281.97;5113225;28;20043;-66
2022/11/09 02:55:10;;;;;;;19.13;6.20;;;14.80;99.90;;;15.12;83.96;100280.13;5094660;28;20473;-66
2022/11/09 02:57:40;;;;;;;21.23;6.80;;;14.80;99.90;;;15.17;83.51;100271.09;5094522;28;20093;-67
2022/11/09 03:00:12;;;;;;;14.38;6.32;;;14.90;99.90;;;15.13;83.26;100264.13;5094615;28;20130;-66
2022/11/09 03:02:41;;;;;;;;;;;14.80;99.90;;;15.16;83.41;100269.34;5095201;28;20050;-66
2022/11/09 03:05:11;;;;;;;19.05;6.53;;;14.80;99.90;;;15.19;83.47;100271.91;5113039;28;19919;-66
2022/11/09 03:07:43;;;;;;;17.27;6.28;;;14.90;99.90;;;15.13;83.01;100279.22;5094508;28;20105;-71
2022/11/09 03:10:12;;;;;;;19.77;6.80;;;14.80;99.90;;;15.03;83.28;100276.00;5094718;28;20054;-66
2022/11/09 03:12:41;;;;;;;21.45;7.60;;;14.80;99.90;;;14.96;83.15;100271.75;5094363;28;20039;-66
2022/11/09 03:15:12;;;;;;;17.85;7.07;;;14.80;99.90;;;14.86;83.42;100254.38;5094710;28;20043;-66
2022/11/09 03:17:44;;;;;;;15.07;7.13;;;14.80;99.90;;;15.09;83.33;100302.44;5094642;28;20584;-66
2022/11/09 03:20:15;;;;;;;17.20;7.28;;;14.80;99.90;;;15.17;83.21;100300.41;5094751;28;20165;-66
2022/11/09 03:22:43;;;;;;;17.93;7.07;;;14.80;99.90;;;15.12;83.10;100320.97;5112617;28;20556;-66
2022/11/09 03:25:12;;;;;;;18.20;7.18;;;14.80;99.90;;;15.07;83.31;100314.06;5094738;28;20484;-66
2022/11/09 03:27:41;;;;;;;17.48;7.10;;;14.80;99.90;;;14.81;83.26;100271.38;5094760;28;20096;-66
2022/11/09 03:30:10;;;;;;;12.10;5.82;;;14.80;99.90;;;15.09;83.04;100320.22;5094924;28;20055;-66
2022/11/09 03:32:39;;;;;;;15.43;5.87;;;14.80;99.90;;;15.04;82.98;100327.50;5113286;28;20050;-66
2022/11/09 03:35:09;;;;;;;14.90;6.25;;;14.80;99.90;;;14.99;83.05;100318.75;5094855;28;20314;-66
2022/11/09 03:37:39;;;;;;;19.02;6.30;;;14.70;99.90;;;14.91;83.43;100313.66;5111444;28;20073;-66
2022/11/09 03:40:09;;;;;;;15.95;5.70;;;14.70;99.90;;;14.89;83.52;100317.28;5095029;28;20075;-66
2022/11/09 03:42:44;;;;;;;10.68;5.22;;;14.60;99.90;;;14.85;83.63;100321.84;5094740;28;20047;-66
2022/11/09 03:45:13;;;;;;;13.45;5.10;;;14.60;99.90;;;14.81;83.91;100328.16;5094773;28;20047;-66
2022/11/09 03:47:42;;;;;;;14.13;5.00;;;14.60;99.90;;;14.88;83.75;100329.75;5113301;28;20122;-66
2022/11/09 03:50:12;;;;;;;14.98;5.45;;;14.60;99.90;;;14.85;83.61;100332.50;5094242;28;20071;-66
2022/11/09 03:52:45;;;;;;;12.13;5.13;;;14.60;99.90;;;14.89;83.77;100338.59;5112379;28;20050;-66
2022/11/09 03:55:14;;;;;;;16.98;5.40;;;14.60;99.90;;;14.91;83.67;100344.75;5112621;28;20065;-67
2022/11/09 03:57:44;;;;;;;19.75;6.28;;;14.60;99.90;;;14.92;83.59;100365.13;5111716;28;20084;-66
2022/11/09 04:00:17;;;;;;;17.02;5.63;;;14.60;99.90;;;14.88;84.67;100345.72;5094053;28;20058;-66
2022/11/09 04:02:45;;;;;;;15.15;5.50;;;14.70;99.90;;;14.94;85.35;100368.63;5093862;28;20051;-66
2022/11/09 04:05:15;;;;;;;15.75;5.75;;;14.60;99.90;;;14.61;85.78;100330.56;5111912;28;20066;-66
2022/11/09 04:07:49;;;;;;;14.90;5.22;;;14.50;99.90;;;14.79;86.15;100361.97;5111938;28;20051;-66
2022/11/09 04:10:18;;;;;;;20.50;5.53;;;14.50;99.90;;;14.66;85.82;100347.28;5093732;28;20066;-67
2022/11/09 04:12:47;;;;;;;13.68;5.03;;;14.50;99.90;;;14.59;86.37;100347.50;5111830;28;20067;-66
2022/11/09 04:15:16;;;;;;;12.50;5.15;;;14.40;99.90;;;14.41;87.01;100328.50;5111695;28;20109;-66
2022/11/09 04:17:45;;;;;;;12.70;5.40;;;14.30;99.90;;;13.89;86.74;100231.56;5112047;28;20488;-66
2022/11/09 04:20:13;;;;;;;15.98;4.90;;;14.30;99.90;;;14.57;86.83;100365.31;5093902;28;20544;-66
2022/11/09 04:22:42;;;;;;;15.25;5.15;;;14.30;99.90;;;14.55;86.69;100345.84;5111682;28;20047;-66
2022/11/09 04:25:11;;;;;;;13.38;5.88;;;14.30;99.90;;;14.28;86.67;100312.91;5111995;28;20075;-66
2022/11/09 04:27:40;;;;;;;15.90;6.05;;;14.20;99.90;;;14.53;87.11;100355.66;5093182;28;20048;-66
2022/11/09 04:30:09;;;;;;;16.77;5.88;;;14.20;99.90;;;14.57;86.76;100355.53;5111678;28;20040;-66
2022/11/09 04:32:38;;;;;;;13.77;6.10;;;14.30;99.90;;;14.62;86.72;100361.59;5112126;28;20102;-66
2022/11/09 04:35:08;;;;;;;15.43;5.63;;;14.30;99.90;;;14.33;86.64;100335.81;5111435;28;20126;-66
2022/11/09 04:37:36;;;;;;;13.30;4.88;;;14.20;99.90;;;14.52;86.86;100367.22;5112083;28;20112;-66
2022/11/09 04:40:06;;;;;;;14.80;5.20;;;14.20;99.90;;;14.45;86.95;100369.19;5111445;28;20464;-66
2022/11/09 04:42:35;;;;;;;15.53;5.00;;;14.10;99.90;;;14.39;87.26;100364.03;5111816;28;20074;-66
2022/11/09 04:45:05;;;;;;;15.07;5.15;;;14.10;99.90;;;14.43;87.94;100369.22;5093854;28;20750;-66
2022/11/09 04:47:33;;;;;;;15.05;6.15;;;14.10;99.90;;;14.33;88.38;100348.22;5093817;28;20504;-66
2022/11/09 04:50:01;;;;;;;16.45;5.68;;;14.20;99.90;;;14.41;88.47;100330.28;5111725;28;20047;-66
2022/11/09 04:52:30;;;;;;;18.65;5.70;;;14.20;99.90;;;14.21;88.67;100303.31;5111298;28;20079;-66
2022/11/09 04:54:58;;;;;;;17.25;5.53;;;14.10;99.90;;;14.28;89.13;100342.19;5111395;28;20043;-66
2022/11/09 04:57:27;;;;;;;15.65;4.88;;;14.10;99.90;;;14.07;89.69;100314.34;5111545;28;20088;-66
2022/11/09 04:59:56;;;;;;;16.65;5.32;;;14.00;99.90;;;14.29;89.88;100354.56;5111637;28;20566;-66
2022/11/09 05:02:24;;;;;;;18.98;5.80;;;14.00;99.90;;;14.26;89.71;100347.53;5111659;28;20043;-66
2022/11/09 05:04:53;;;;;;;17.40;5.70;;;14.00;99.90;;;14.22;89.49;100361.81;5111422;28;20132;-66
2022/11/09 05:07:21;;;;;;;20.33;5.97;;;14.00;99.90;;;14.15;89.78;100348.72;5111645;28;20047;-66
2022/11/09 05:09:49;;;;;;;13.57;5.43;;;13.90;99.90;;;13.83;89.46;100290.22;5115027;28;20042;-66
2022/11/09 05:12:18;;;;;;;16.00;5.15;;;13.90;99.90;;;14.18;88.87;100346.84;5115264;28;20428;-66
2022/11/09 05:14:46;;;;;;;20.13;6.07;;;14.00;99.90;;;13.98;88.69;100330.56;5114909;28;20046;-66
2022/11/09 05:17:16;;;;;;;18.02;5.30;;;13.90;99.90;;;14.01;88.71;100340.25;5115151;28;20078;-67
2022/11/09 05:19:44;;;;;;;15.45;5.25;;;13.80;99.90;;;14.18;88.56;100354.84;5115020;28;20125;-66
2022/11/09 05:24:58;;;;;;;17.92;5.88;;;13.90;99.90;;;13.94;88.27;100333.31;5115087;28;20054;-66
2022/11/09 05:27:27;;;;;;;17.30;6.00;;;13.80;99.90;;;14.04;88.33;100366.75;5114980;28;20043;-66
2022/11/09 05:29:55;;;;;;;18.27;5.60;;;13.80;99.90;;;13.99;88.39;100364.22;5115042;28;20036;-66
2022/11/09 05:32:25;;;;;;;15.52;5.45;;;13.70;99.90;;;13.97;88.57;100368.72;5114772;28;20048;-66
2022/11/09 05:34:53;;;;;;;16.25;5.63;;;13.80;99.90;;;13.93;88.53;100359.06;5114341;28;20078;-66
2022/11/09 05:37:22;;;;;;;14.30;5.43;;;13.80;99.90;;;13.95;88.53;100357.22;5114059;28;20051;-66
2022/11/09 05:39:50;;;;;;;18.67;5.40;;;13.70;99.90;;;14.00;88.79;100373.94;5114514;28;20401;-66
2022/11/09 05:42:19;;;;;;;18.10;5.50;;;13.70;99.90;;;14.01;88.63;100385.44;5114181;28;20044;-66
2022/11/09 05:44:47;;;;;;;18.90;5.70;;;13.70;99.90;;;14.01;88.24;100356.19;5114381;28;20079;-66
2022/11/09 05:47:15;;;;;;;19.45;5.63;;;13.80;99.90;;;14.08;88.19;100373.72;5114604;28;20043;-66
2022/11/09 05:49:45;;;;;;;18.48;5.80;;;13.80;99.90;;;14.09;88.15;100367.50;5114556;28;20050;-66
2022/11/09 05:52:14;;;;;;;14.85;5.70;;;13.80;99.90;;;14.05;88.26;100373.81;5114804;28;20413;-66
2022/11/09 05:54:42;;;;;;;20.98;6.10;;;13.80;99.90;;;14.12;88.17;100370.94;5114262;28;20039;-66
2022/11/09 05:57:10;;;;;;;23.65;6.43;;;13.80;99.90;;;14.14;87.85;100373.56;5114144;28;20115;-66
2022/11/09 05:59:39;;;;;;;18.52;6.28;;;13.80;99.90;;;14.16;88.16;100377.06;5114563;28;20043;-66
2022/11/09 06:02:07;;;;;;;17.50;5.72;;;13.80;99.90;;;14.10;88.26;100385.19;5114548;28;20046;-66
2022/11/09 06:04:35;;;;;;;18.58;6.57;;;13.80;99.90;;;13.97;88.41;100360.72;5096258;28;20050;-66
2022/11/09 06:07:05;;;;;;;20.63;6.20;;;13.80;99.90;;;13.97;88.66;100354.53;5114205;28;20487;-66
2022/11/09 06:09:33;;;;;;;17.90;5.83;;;13.80;99.90;;;14.03;88.50;100363.19;5114065;28;20079;-66
2022/11/09 06:12:02;;;;;;;16.15;6.18;;;13.80;99.90;;;14.02;88.67;100366.78;5114035;28;20290;-66
2022/11/09 06:14:30;;;;;;;16.83;5.82;;;13.80;99.90;;;13.97;88.77;100362.50;5114014;28;20051;-67
2022/11/09 06:16:59;;;;;;;18.23;5.70;;;13.80;99.90;;;13.84;88.88;100363.75;5113861;28;20073;-66
2022/11/09 06:19:28;;;;;;;20.65;5.32;;;13.80;99.90;;;14.03;89.37;100378.31;5112887;28;20050;-66
2022/11/09 06:21:56;;;;;;;22.73;6.60;;;13.80;99.90;;;14.05;89.58;100374.66;5113939;28;20066;-66
2022/11/09 06:24:26;;;;;;;17.52;6.00;;;13.80;99.90;;;14.06;89.63;100372.88;5114229;28;20459;-66
2022/11/09 06:26:54;;;;;;;20.23;5.90;;;13.80;99.90;;;13.95;89.29;100361.69;5114023;28;20147;-66
2022/11/09 06:29:22;;;;;;;18.40;6.32;;;13.70;99.90;;;14.07;89.80;100377.31;5114202;28;20404;-66
2022/11/09 06:31:51;;;;;;;18.10;6.32;;;13.80;99.90;;;14.04;89.52;100396.00;5113991;28;20047;-66
2022/11/09 06:34:19;;;;;;;15.25;5.90;;;13.80;99.90;;;14.00;89.76;100381.03;5113933;28;20054;-66
2022/11/09 06:36:47;;;;;;;22.65;6.55;;;13.80;99.90;;;14.00;90.00;100375.72;5113989;28;20051;-66
2022/11/09 06:39:16;;;;;;;18.08;6.25;;;13.80;99.90;;;14.03;89.97;100383.63;5113840;28;20521;-66
2022/11/09 06:41:46;;;;;;;15.93;5.95;;;13.70;99.90;;;14.03;90.35;100402.25;5113582;28;20039;-66
2022/11/09 06:44:15;;;;;;;23.42;6.28;;;13.70;99.90;;;14.00;90.30;100386.34;5113678;28;20062;-66
2022/11/09 06:46:43;;;;;;;15.45;6.47;;;13.70;99.90;;;14.00;90.41;100392.53;5113267;28;20054;-66
2022/11/09 06:49:11;;;;;;;23.27;6.75;;;13.70;99.90;;;13.96;90.19;100388.22;5094922;28;20052;-66
2022/11/09 06:51:40;;;;;;;17.33;6.28;;;13.70;99.90;;;13.95;90.41;100377.63;5094894;28;20146;-67
2022/11/09 06:54:08;;;;;;;14.55;6.07;;;13.70;99.90;;;13.86;90.87;100368.09;5113029;28;20043;-67
2022/11/09 06:56:37;;;;;;;16.15;5.53;;;13.70;99.90;;;13.91;91.29;100384.81;5112915;28;20464;-67
2022/11/09 06:59:07;;;;;;;20.10;6.15;;;13.60;99.90;;;13.86;91.01;100378.72;5113438;28;20040;-67
2022/11/09 07:01:36;;;;;;;;;;;13.60;99.90;;;13.88;91.30;100371.59;5113367;28;20047;-67
2022/11/09 07:04:04;;;;;;;19.20;6.15;;;13.70;99.90;;;13.84;91.45;100385.00;5112991;28;19920;-67
2022/11/09 07:06:33;;;;;;;17.75;6.18;;;13.70;99.90;;;13.81;91.44;100395.72;5113275;28;20154;-67
2022/11/09 07:09:01;;;;;;;17.08;5.97;;;13.60;99.90;;;13.88;91.42;100390.19;5113671;28;20048;-67
2022/11/09 07:11:29;;;;;;;18.15;5.60;;;13.60;99.90;;;13.93;91.25;100383.00;5113338;28;20036;-67
2022/11/09 07:13:58;;;;;;;20.48;6.13;;;13.70;99.90;;;13.99;91.12;100388.16;5113082;28;20050;-67
2022/11/09 07:16:27;;;;;;;19.05;5.53;;;13.70;99.90;;;13.96;91.41;100392.66;5113251;28;20441;-67
2022/11/09 07:18:56;;;;;;;17.17;5.63;;;13.70;99.90;;;13.97;91.55;100397.06;5112731;28;20074;-67
2022/11/09 07:21:25;;;;;;;18.38;5.88;;;13.70;99.90;;;14.00;91.85;100408.50;5112868;28;20044;-67
2022/11/09 07:23:53;;;;;;;18.75;6.13;;;13.70;99.90;;;14.04;91.86;100390.66;5112644;28;20047;-67
2022/11/09 07:26:21;;;;;;;21.80;6.30;;;13.80;99.90;;;14.01;91.74;100410.25;5113075;28;20043;-67
2022/11/09 07:28:49;;;;;;;18.23;6.05;;;13.80;99.90;;;13.94;91.58;100400.69;5112359;28;20430;-67
2022/11/09 07:31:18;;;;;;;16.15;5.85;;;13.80;99.90;;;14.03;91.46;100412.88;5093942;28;20048;-67
2022/11/09 07:33:50;;;;;;;20.25;6.70;;;13.80;99.90;;;14.03;91.35;100397.78;5112233;28;20067;-67
2022/11/09 07:36:18;;;;;;;18.65;5.82;;;13.80;99.90;;;14.03;90.80;100381.81;5112322;28;20052;-67
2022/11/09 07:38:48;;;;;;;;;;;13.90;99.90;;;14.09;90.49;100402.09;5112716;28;20043;-67
2022/11/09 07:41:17;;;;;;;15.93;5.72;;;13.90;99.90;;;14.17;90.27;100410.72;5111976;28;19920;-67
2022/11/09 07:43:45;;;;;;;22.40;6.68;;;13.90;99.90;;;13.94;90.09;100376.75;5112389;28;20054;-67
2022/11/09 07:46:13;;;;;;;16.23;6.30;;;13.90;99.90;;;13.92;90.31;100378.56;5111936;28;20118;-67
2022/11/09 07:48:42;;;;;;;17.55;5.60;;;13.90;99.90;;;14.15;90.28;100424.06;5111978;28;20048;-67
2022/11/09 07:51:12;;;;;;;19.13;6.03;;;13.90;99.90;;;14.09;89.93;100431.34;5112224;28;20048;-67
2022/11/09 07:53:40;;;;;;;20.00;5.85;;;13.80;99.90;;;14.21;90.27;100431.00;5093920;28;20511;-67
2022/11/09 07:56:09;;;;;;;15.93;5.28;;;13.90;99.90;;;14.31;89.85;100440.53;5111680;28;20106;-67
2022/11/09 07:58:37;;;;;;;19.05;5.80;;;14.00;99.90;;;14.31;89.34;100430.75;5112079;28;20055;-67
2022/11/09 08:01:10;;;;;;;22.73;6.32;;;14.10;99.90;;;14.44;89.05;100461.44;5112028;28;20039;-67
2022/11/09 08:03:38;;;;;;;19.30;5.85;;;14.20;99.90;;;14.47;88.51;100439.22;5111669;28;20054;-67
2022/11/09 08:06:06;;;;;;;17.40;6.03;;;14.20;99.90;;;14.50;88.33;100447.09;5111710;28;20043;-66
2022/11/09 08:08:36;;;;;;;20.55;6.22;;;14.20;99.90;;;14.48;88.10;100456.06;5093726;28;20478;-67
2022/11/09 08:11:05;;;;;;;16.00;6.10;;;14.20;99.90;;;14.50;88.47;100456.88;5111842;28;20047;-67
2022/11/09 08:13:33;;;;;;;17.80;6.03;;;14.20;99.90;;;14.32;87.85;100443.13;5111868;28;20070;-66
2022/11/09 08:16:03;;;;;;;21.00;6.05;;;14.30;99.90;;;14.62;87.88;100469.84;5093706;28;20134;-66
2022/11/09 08:18:31;;;;;;;19.33;7.63;;;14.30;99.90;;;14.51;87.65;100437.31;5111591;28;20499;-67
2022/11/09 08:21:03;;;;;;;18.35;7.43;;;14.30;99.90;;;14.58;87.96;100466.38;5112237;28;20067;-67
2022/11/09 08:23:31;;;;;;;19.77;6.43;;;14.40;99.90;;;14.64;87.22;100476.00;5112162;28;20044;-66
2022/11/09 08:26:05;;;;;;;21.63;6.82;;;14.30;99.90;;;14.44;87.20;100432.16;5112499;28;20043;-67
2022/11/09 08:28:34;;;;;;;18.95;6.32;;;14.40;99.90;;;14.65;87.62;100462.66;5112179;28;20454;-67
2022/11/09 08:31:07;;;;;;;22.23;5.70;;;14.40;99.90;;;14.59;87.19;100468.16;5112190;28;20044;-67
2022/11/09 08:33:39;;;;;;;19.38;5.50;;;14.40;99.90;;;14.62;86.90;100459.19;5112247;28;20452;-67
2022/11/09 08:36:13;;;;;;;18.20;5.90;;;14.40;99.90;;;14.69;87.03;100474.94;5111914;28;20057;-67
2022/11/09 08:38:42;;;;;;;23.55;6.28;;;14.40;99.90;;;14.53;87.49;100476.31;5093737;28;20134;-67
2022/11/09 08:41:13;;;;;;;22.73;5.72;;;14.40;99.90;;;14.52;87.57;100471.03;5093722;28;20056;-67
2022/11/09 08:43:42;;;;;;;18.17;5.78;;;14.30;99.90;;;14.52;87.72;100471.88;5114561;28;20086;-67
2022/11/09 08:46:10;;;;;;;19.35;6.25;;;14.30;99.90;;;14.50;88.11;100484.34;5116132;28;20405;-67
2022/11/09 08:48:38;;;;;;;19.27;6.03;;;14.30;99.90;;;14.54;87.93;100486.03;5115882;28;20054;-67
2022/11/09 08:51:07;;;;;;;20.00;6.30;;;14.30;99.90;;;14.59;87.84;100468.16;5116052;28;20131;-67
2022/11/09 08:53:35;;;;;;;20.10;5.57;;;14.30;99.90;;;14.64;87.32;100489.31;5115608;28;20433;-67
2022/11/09 08:56:06;;;;;;;20.60;6.15;;;14.40;99.90;;;14.56;87.56;100486.84;5115821;28;20035;-67
2022/11/09 08:58:36;;;;;;;17.23;6.20;;;14.40;99.90;;;14.62;87.06;100485.81;5116002;28;20067;-67
2022/11/09 09:01:07;;;;;;;18.08;6.68;;;14.40;99.90;;;14.56;87.04;100521.47;5115983;28;20065;-67
2022/11/09 09:03:44;;;;;;;19.45;6.43;;;14.40;99.90;;;14.45;87.33;100486.28;5115823;28;20122;-67
2022/11/09 09:06:12;;;;;;;21.90;6.50;;;14.30;99.90;;;14.55;87.46;100493.09;5115659;28;20032;-67
2022/11/09 09:08:41;;;;;;;25.30;6.72;;;14.20;99.90;;;14.55;87.43;100487.78;5115383;28;20082;-67
2022/11/09 09:11:09;;;;;;;19.88;6.20;;;14.30;99.90;;;14.55;87.40;100495.78;5115176;28;20036;-67
2022/11/09 09:13:39;;;;;;;20.75;6.43;;;14.30;99.90;;;14.45;87.12;100491.59;5114993;28;20441;-67
2022/11/09 09:16:13;;;;;;;18.65;6.22;;;14.20;99.90;;;14.58;87.62;100485.03;5096969;28;20047;-67
2022/11/09 09:18:41;;;;;;;;;;;14.30;99.90;;;14.60;87.33;100480.53;5115691;28;20134;-67
2022/11/09 09:21:11;;;;;;;21.38;6.20;;;14.40;99.90;;;14.33;86.88;100441.34;5115151;28;19927;-67
2022/11/09 09:23:39;;;;;;;17.85;5.75;;;14.30;99.90;;;14.42;87.21;100487.22;5115001;28;20051;-67
2022/11/09 09:26:08;;;;;;;17.83;6.68;;;14.20;99.90;;;14.57;87.25;100482.41;5115199;28;20042;-67
2022/11/09 09:28:38;;;;;;;17.17;6.47;;;14.30;99.90;;;14.60;86.92;100475.22;5115605;28;20039;-68
2022/11/09 09:31:06;;;;;;;22.90;6.28;;;14.30;99.90;;;14.64;86.83;100474.22;5115088;28;20067;-67
2022/11/09 09:33:35;;;;;;;19.23;6.60;;;14.30;99.90;;;14.38;86.20;100474.06;5114766;28;20052;-67
2022/11/09 09:36:04;;;;;;;19.45;5.40;;;14.30;99.90;;;14.51;86.04;100478.13;5114941;28;20062;-67
2022/11/09 09:38:33;;;;;;;18.92;5.03;;;14.30;99.90;;;14.55;85.93;100497.53;5114677;28;20373;-67
2022/11/09 09:41:03;;;;;;;19.17;6.03;;;14.30;99.90;;;14.65;85.78;100481.31;5114972;28;20143;-67
2022/11/09 09:43:36;;;;;;;19.77;6.22;;;14.30;99.90;;;13.38;85.18;100309.09;5115093;28;20126;-67
2022/11/09 09:46:20;;;;;;;19.98;5.78;;;14.50;99.90;;;14.86;84.68;100494.03;5096800;28;20142;-67
2022/11/09 09:48:53;;;;;;;20.95;6.05;;;14.60;99.90;;;14.63;84.34;100496.44;5114796;28;20051;-67
2022/11/09 09:51:29;;;;;;;23.08;6.18;;;14.50;99.90;;;14.64;84.25;100519.47;5114727;28;20131;-67
2022/11/09 09:54:05;;;;;;;23.90;5.85;;;14.40;99.90;;;14.32;84.49;100471.56;5114761;28;20131;-67
2022/11/09 09:56:39;;;;;;;20.33;6.40;;;14.40;99.90;;;14.65;84.39;100528.34;5114823;28;20069;-67
2022/11/09 09:59:15;;;;;;;18.92;6.38;;;14.40;99.90;;;14.76;85.10;100537.78;5114791;28;20051;-67
2022/11/09 10:01:45;;;;;;;22.55;5.57;;;14.50;99.90;;;14.53;84.67;100496.72;5114511;28;20039;-66
2022/11/09 10:04:19;;;;;;;19.67;5.78;;;14.40;99.90;;;14.68;85.20;100558.41;5114271;28;20036;-67
2022/11/09 10:07:03;;;;;;;21.27;6.07;;;14.40;99.90;;;14.68;85.54;100558.41;5114458;28;20063;-67
2022/11/09 10:09:53;;;;;;;18.30;6.72;;;14.40;99.90;;;14.50;86.50;100529.59;5114165;28;20058;-67
2022/11/09 10:12:33;;;;;;;15.15;5.93;;;14.30;99.90;;;14.53;86.86;100532.19;5114131;28;20043;-67
2022/11/09 10:15:13;;;;;;;19.02;6.28;;;14.30;99.90;;;14.50;86.80;100537.56;5096260;28;20082;-67
2022/11/09 10:17:57;;;;;;;20.90;6.32;;;14.20;99.90;;;14.50;86.95;100540.25;5114464;28;20353;-67
2022/11/09 10:20:40;;;;;;;14.45;6.25;;;14.20;99.90;;;14.44;86.87;100548.38;5113975;28;20604;-67
2022/11/09 10:23:34;;;;;;;14.90;5.68;;;14.20;99.90;;;14.43;87.51;100538.66;5114336;28;20453;-67